createdAt,value
2022-10-14T00:02:00.623Z,7.00
2022-10-14T00:07:04.643Z,6.00
2022-10-14T00:12:07.390Z,6.00
2022-10-14T00:17:10.002Z,6.00
2022-10-14T00:22:14.063Z,5.00
2022-10-14T00:27:16.724Z,4.50
2022-10-14T00:32:19.396Z,4.25
2022-10-14T00:37:23.819Z,4.50
2022-10-14T00:42:26.727Z,4.75
2022-10-14T00:47:30.644Z,4.50
2022-10-14T00:52:35.639Z,5.00
2022-10-14T00:57:39.814Z,5.75
2022-10-14T01:02:44.140Z,5.00
2022-10-14T01:07:58.559Z,5.00
2022-10-14T01:13:09.084Z,4.00
2022-10-14T01:18:20.147Z,5.00
2022-10-14T01:23:44.390Z,4.00
2022-10-14T01:28:55.947Z,5.00
2022-10-14T01:34:03.515Z,6.00
2022-10-14T01:39:14.879Z,4.75
2022-10-14T01:44:22.122Z,3.50
2022-10-14T01:49:30.320Z,5.00
2022-10-14T01:54:36.528Z,4.00
2022-10-14T01:59:41.673Z,3.00
2022-10-14T02:04:45.800Z,5.75
2022-10-14T02:09:58.608Z,4.50
2022-10-14T02:15:17.347Z,3.00
2022-10-14T02:20:28.452Z,4.75
2022-10-14T02:25:35.292Z,4.00
2022-10-14T02:30:41.530Z,4.00
2022-10-14T02:35:46.378Z,4.00
2022-10-14T02:40:51.685Z,4.00
2022-10-14T02:45:59.146Z,3.75
2022-10-14T02:51:03.326Z,4.00
2022-10-14T02:56:06.489Z,4.00
2022-10-14T03:01:10.644Z,3.50
2022-10-14T03:06:16.039Z,4.00
2022-10-14T03:11:18.880Z,3.25
2022-10-14T03:16:21.818Z,3.50
2022-10-14T03:21:26.076Z,5.00
2022-10-14T03:26:29.682Z,3.25
2022-10-14T03:31:33.109Z,5.00
2022-10-14T03:36:55.936Z,4.00
2022-10-14T03:42:00.962Z,3.50
2022-10-14T03:47:10.906Z,4.00
2022-10-14T03:52:15.704Z,5.00
2022-10-14T03:57:20.120Z,4.00
2022-10-14T04:02:27.445Z,4.00
2022-10-14T04:07:34.537Z,3.00
2022-10-14T04:12:37.284Z,3.50
2022-10-14T04:17:44.726Z,3.75
2022-10-14T04:22:51.679Z,4.00
2022-10-14T04:27:56.029Z,4.00
2022-10-14T04:33:06.948Z,4.00
2022-10-14T04:38:11.531Z,3.75
2022-10-14T04:43:25.074Z,4.00
2022-10-14T04:48:28.797Z,3.00
2022-10-14T04:53:33.745Z,2.75
2022-10-14T04:58:45.199Z,4.00
2022-10-14T05:03:48.277Z,3.00
2022-10-14T05:08:53.719Z,3.75
2022-10-14T05:13:56.441Z,3.00
2022-10-14T05:19:02.496Z,4.00
2022-10-14T05:24:08.769Z,2.25
2022-10-14T05:29:14.641Z,4.00
2022-10-14T05:34:17.425Z,3.75
2022-10-14T05:39:22.331Z,3.50
2022-10-14T05:44:25.069Z,2.75
2022-10-14T05:49:28.561Z,3.50
2022-10-14T05:54:34.882Z,3.00
2022-10-14T05:59:39.675Z,3.00
2022-10-14T06:04:43.272Z,2.50
2022-10-14T06:09:47.976Z,3.00
2022-10-14T06:14:50.770Z,3.50
2022-10-14T06:19:53.421Z,3.50
2022-10-14T06:25:01.739Z,4.00
2022-10-14T06:30:07.683Z,3.50
2022-10-14T06:35:10.886Z,2.75
2022-10-14T06:40:14.948Z,3.00
2022-10-14T06:45:17.664Z,2.50
2022-10-14T06:50:20.470Z,2.75
2022-10-14T06:55:24.445Z,3.00
2022-10-14T07:00:27.074Z,4.00
2022-10-14T07:05:29.727Z,4.00
2022-10-14T07:10:33.728Z,4.00
2022-10-14T07:15:38.266Z,4.00
2022-10-14T07:20:40.995Z,4.50
2022-10-14T07:25:45.407Z,4.00
2022-10-14T07:30:57.849Z,4.00
2022-10-14T07:36:02.736Z,7.00
2022-10-14T07:41:16.667Z,6.00
2022-10-14T07:46:28.925Z,5.50
2022-10-14T07:51:31.855Z,4.50
2022-10-14T07:56:36.562Z,14.75
2022-10-14T08:01:39.276Z,7.25
2022-10-14T08:06:42.339Z,6.00
2022-10-14T08:11:46.686Z,6.75
2022-10-14T08:16:49.410Z,5.00
2022-10-14T08:21:53.293Z,6.00
2022-10-14T08:27:00.560Z,7.00
2022-10-14T08:32:03.308Z,11.75
2022-10-14T08:37:06.079Z,9.00
2022-10-14T08:42:32.285Z,10.00
2022-10-14T08:47:38.542Z,12.50
2022-10-14T08:52:49.202Z,11.00
2022-10-14T08:57:58.615Z,11.75
2022-10-14T09:03:12.405Z,12.00
2022-10-14T09:08:18.033Z,11.75
2022-10-14T09:13:31.108Z,10.00
2022-10-14T09:18:37.700Z,9.00
2022-10-14T09:23:40.360Z,8.25
2022-10-14T09:28:46.176Z,9.00
2022-10-14T09:33:48.863Z,6.75
2022-10-14T09:38:53.859Z,7.00
2022-10-14T09:44:22.547Z,7.00
2022-10-14T09:49:36.593Z,7.50
2022-10-14T09:54:39.353Z,8.00
2022-10-14T09:59:53.817Z,6.00
2022-10-14T10:04:57.284Z,6.25
2022-10-14T10:10:02.235Z,6.00
2022-10-14T10:15:07.626Z,7.00
2022-10-14T10:20:28.186Z,8.00
2022-10-14T10:25:31.328Z,7.50
2022-10-14T10:30:43.742Z,6.50
2022-10-14T10:36:13.273Z,6.00
2022-10-14T10:41:30.657Z,7.25
2022-10-14T10:46:52.376Z,5.00
2022-10-14T10:52:08.600Z,5.00
2022-10-14T10:57:30.410Z,6.00
2022-10-14T11:02:55.899Z,5.00
2022-10-14T11:08:22.641Z,5.00
2022-10-14T11:13:35.868Z,5.00
2022-10-14T11:18:48.176Z,3.25
2022-10-14T11:24:02.004Z,4.25
2022-10-14T11:29:16.050Z,4.00
2022-10-14T11:34:37.856Z,4.00
2022-10-14T11:39:48.228Z,3.75
2022-10-14T11:45:05.544Z,3.00
2022-10-14T11:50:17.408Z,4.00
2022-10-14T11:55:24.408Z,4.00
2022-10-14T12:01:16.947Z,4.00
2022-10-14T12:06:26.138Z,3.00
2022-10-14T12:11:34.047Z,3.00
2022-10-14T12:16:41.836Z,2.50
2022-10-14T12:21:55.946Z,3.00
2022-10-14T12:27:04.969Z,1.00
2022-10-14T12:32:19.510Z,2.00
2022-10-14T12:37:49.968Z,1.25
2022-10-14T12:42:59.376Z,1.00
2022-10-14T12:48:06.032Z,2.00
2022-10-14T12:53:22.328Z,1.50
2022-10-14T12:58:31.451Z,2.00
2022-10-14T13:03:42.159Z,1.25
2022-10-14T13:09:33.128Z,2.00
2022-10-14T13:14:59.127Z,1.00
2022-10-14T13:20:04.399Z,2.00
2022-10-14T13:25:19.306Z,1.00
2022-10-14T13:30:34.213Z,2.00
2022-10-14T13:35:49.595Z,2.00
2022-10-14T13:40:54.126Z,1.00
2022-10-14T13:46:04.322Z,1.00
2022-10-14T13:51:36.643Z,1.25
2022-10-14T13:56:40.235Z,1.00
2022-10-14T14:01:44.456Z,1.50
2022-10-14T14:07:03.117Z,2.00
2022-10-14T14:12:14.369Z,1.75
2022-10-14T14:17:20.766Z,1.00
2022-10-14T14:22:28.159Z,1.00
2022-10-14T14:27:30.849Z,1.00
2022-10-14T14:32:37.392Z,1.00
2022-10-14T14:37:55.151Z,1.00
2022-10-14T14:43:01.461Z,2.00
2022-10-14T14:48:08.758Z,1.00
2022-10-14T14:53:15.170Z,1.00
2022-10-14T14:58:25.508Z,1.00
2022-10-14T15:03:32.973Z,1.00
2022-10-14T15:08:37.967Z,1.25
2022-10-14T15:13:48.543Z,1.00
2022-10-14T15:19:34.226Z,0.50
2022-10-14T15:25:09.106Z,1.00
2022-10-14T15:30:23.900Z,1.00
2022-10-14T15:35:29.346Z,1.75
2022-10-14T15:40:34.051Z,1.50
2022-10-14T15:45:37.974Z,1.00
2022-10-14T15:50:45.748Z,0.50
2022-10-14T15:55:48.446Z,6.00
2022-10-14T16:00:51.126Z,3.50
2022-10-14T16:05:55.254Z,2.00
2022-10-14T16:10:59.085Z,3.00
2022-10-14T16:16:06.705Z,1.00
2022-10-14T16:21:16.206Z,2.00
2022-10-14T16:26:18.829Z,2.00
2022-10-14T16:31:22.372Z,1.25
2022-10-14T16:36:30.991Z,1.75
2022-10-14T16:41:33.771Z,1.50
2022-10-14T16:46:53.911Z,1.00
2022-10-14T16:51:58.006Z,1.25
2022-10-14T16:57:04.064Z,1.00
2022-10-14T17:02:10.533Z,2.00
2022-10-14T17:07:17.234Z,2.00
2022-10-14T17:12:19.850Z,2.00
2022-10-14T17:17:23.707Z,2.00
2022-10-14T17:22:28.317Z,1.00
2022-10-14T17:27:30.995Z,2.00
2022-10-14T17:32:33.606Z,1.25
2022-10-14T17:37:37.592Z,2.00
2022-10-14T17:42:40.467Z,2.00
2022-10-14T17:47:43.074Z,1.00
2022-10-14T17:52:47.266Z,1.00
2022-10-14T17:57:50.097Z,2.00
2022-10-14T18:02:52.694Z,1.75
2022-10-14T18:07:56.661Z,2.00
2022-10-14T18:12:59.336Z,2.00
2022-10-14T18:18:01.977Z,1.75
2022-10-14T18:23:07.526Z,1.00
2022-10-14T18:28:10.440Z,2.00
2022-10-14T18:33:13.279Z,3.00
2022-10-14T18:38:17.639Z,2.00
2022-10-14T18:43:20.356Z,2.50
2022-10-14T18:48:23.445Z,1.00
2022-10-14T18:53:28.185Z,2.00
2022-10-14T18:58:31.017Z,3.00
2022-10-14T19:03:34.851Z,2.00
2022-10-14T19:08:40.854Z,3.00
2022-10-14T19:13:45.148Z,2.00
2022-10-14T19:18:48.367Z,2.00
2022-10-14T19:23:52.526Z,3.00
2022-10-14T19:28:55.198Z,2.00
2022-10-14T19:34:00.720Z,3.00
2022-10-14T19:39:06.932Z,2.00
2022-10-14T19:44:10.443Z,3.00
2022-10-14T19:49:14.738Z,3.00
2022-10-14T19:54:19.127Z,2.25
2022-10-14T19:59:21.931Z,2.00
2022-10-14T20:04:26.670Z,2.75
2022-10-14T20:09:31.637Z,3.00
2022-10-14T20:14:34.277Z,2.00
2022-10-14T20:19:37.623Z,3.00
2022-10-14T20:24:41.635Z,3.25
2022-10-14T20:29:44.381Z,2.00
2022-10-14T20:34:47.928Z,3.50
2022-10-14T20:39:53.824Z,2.50
2022-10-14T20:44:56.668Z,4.00
2022-10-14T20:49:59.462Z,4.00
2022-10-14T20:55:03.588Z,3.00
2022-10-14T21:00:10.937Z,2.50
2022-10-14T21:05:13.559Z,3.00
2022-10-14T21:10:17.599Z,3.00
2022-10-14T21:15:20.366Z,3.00
2022-10-14T21:20:23.183Z,2.75
2022-10-14T21:25:27.360Z,2.25
2022-10-14T21:30:30.117Z,2.50
2022-10-14T21:35:32.956Z,3.75
2022-10-14T21:40:36.929Z,3.00
2022-10-14T21:45:39.582Z,2.00
2022-10-14T21:50:42.766Z,2.75
2022-10-14T21:55:52.846Z,3.00
2022-10-14T22:01:01.987Z,2.50
2022-10-14T22:06:07.832Z,3.00
2022-10-14T22:11:18.683Z,2.00
2022-10-14T22:16:21.994Z,3.00
2022-10-14T22:21:26.832Z,2.50
2022-10-14T22:26:32.062Z,3.00
2022-10-14T22:31:35.715Z,3.25
2022-10-14T22:36:38.997Z,2.25
2022-10-14T22:41:43.372Z,2.25
2022-10-14T22:46:47.040Z,2.25
2022-10-14T22:51:51.945Z,2.00
2022-10-14T22:56:57.415Z,2.00
2022-10-14T23:02:00.083Z,2.00
2022-10-14T23:07:06.137Z,2.50
2022-10-14T23:12:11.133Z,2.00
2022-10-14T23:17:14.210Z,2.00
2022-10-14T23:22:17.034Z,2.00
2022-10-14T23:27:21.000Z,2.50
2022-10-14T23:32:23.697Z,1.50
2022-10-14T23:37:26.350Z,1.50
2022-10-14T23:42:30.473Z,4.00
2022-10-14T23:47:33.183Z,1.50
2022-10-14T23:52:35.885Z,2.25
2022-10-14T23:57:40.228Z,2.00
